createdAt,value
2022-12-27T00:01:14.832Z,93.40
2022-12-27T00:05:35.268Z,93.20
2022-12-27T00:09:55.649Z,93.10
2022-12-27T00:14:13.404Z,93.10
2022-12-27T00:18:31.097Z,93.10
2022-12-27T00:22:50.877Z,93.30
2022-12-27T00:27:10.333Z,93.40
2022-12-27T00:31:31.142Z,93.50
2022-12-27T00:35:49.393Z,93.50
2022-12-27T00:40:10.633Z,93.70
2022-12-27T00:44:28.550Z,94.10
2022-12-27T00:48:47.277Z,94.50
2022-12-27T00:53:05.016Z,94.80
2022-12-27T00:57:24.195Z,94.70
2022-12-27T01:01:43.985Z,94.60
2022-12-27T01:06:06.428Z,94.70
2022-12-27T01:10:26.307Z,95.00
2022-12-27T01:14:46.052Z,95.40
2022-12-27T01:19:05.442Z,95.90
2022-12-27T01:23:23.430Z,96.10
2022-12-27T01:27:41.388Z,96.20
2022-12-27T01:32:00.987Z,96.00
2022-12-27T01:36:22.909Z,95.80
2022-12-27T01:40:41.718Z,95.60
2022-12-27T01:45:00.119Z,95.40
2022-12-27T01:49:19.471Z,95.40
2022-12-27T01:53:42.557Z,95.30
2022-12-27T01:58:06.284Z,95.30
2022-12-27T02:02:24.548Z,95.30
2022-12-27T02:06:44.154Z,95.30
2022-12-27T02:11:05.777Z,95.40
2022-12-27T02:15:24.603Z,95.40
2022-12-27T02:19:53.715Z,95.50
2022-12-27T02:24:55.035Z,95.50
2022-12-27T02:29:25.841Z,95.50
2022-12-27T02:33:49.268Z,95.40
2022-12-27T02:38:13.531Z,95.30
2022-12-27T02:42:58.431Z,95.30
2022-12-27T02:47:40.126Z,95.20
2022-12-27T02:52:19.184Z,95.10
2022-12-27T02:57:04.868Z,94.80
2022-12-27T03:01:53.666Z,94.70
2022-12-27T03:06:59.799Z,94.50
2022-12-27T03:11:37.311Z,94.40
2022-12-27T03:16:09.691Z,94.40
2022-12-27T03:20:47.921Z,94.30
2022-12-27T03:25:25.551Z,94.30
2022-12-27T03:30:07.033Z,94.40
2022-12-27T03:34:38.291Z,94.60
2022-12-27T03:39:06.516Z,94.80
2022-12-27T03:43:26.991Z,95.10
2022-12-27T03:47:52.793Z,95.30
2022-12-27T03:52:15.889Z,95.50
2022-12-27T03:56:35.060Z,96.00
2022-12-27T04:00:54.897Z,96.40
2022-12-27T04:05:14.235Z,96.50
2022-12-27T04:09:49.802Z,96.30
2022-12-27T04:14:26.232Z,96.00
2022-12-27T04:19:04.041Z,95.70
2022-12-27T04:23:38.976Z,95.30
2022-12-27T04:28:15.940Z,95.00
2022-12-27T04:32:52.161Z,94.40
2022-12-27T04:37:14.939Z,94.10
2022-12-27T04:41:58.995Z,94.10
2022-12-27T04:46:46.231Z,94.10
2022-12-27T04:51:24.781Z,94.20
2022-12-27T04:55:44.652Z,94.20
2022-12-27T05:00:22.873Z,94.40
2022-12-27T05:04:41.513Z,94.70
2022-12-27T05:09:25.144Z,94.90
2022-12-27T05:14:01.228Z,95.10
2022-12-27T05:18:21.274Z,95.40
2022-12-27T05:22:56.453Z,95.80
2022-12-27T05:27:15.789Z,96.00
2022-12-27T05:31:35.755Z,96.30
2022-12-27T05:35:54.929Z,96.60
2022-12-27T05:40:13.955Z,97.00
2022-12-27T05:44:31.044Z,97.30
2022-12-27T05:48:50.500Z,97.60
2022-12-27T05:53:10.235Z,97.80
2022-12-27T05:57:28.631Z,98.00
2022-12-27T06:01:46.540Z,98.10
2022-12-27T06:06:08.110Z,98.20
2022-12-27T06:10:25.511Z,98.30
2022-12-27T06:14:43.496Z,98.20
2022-12-27T06:19:01.903Z,98.30
2022-12-27T06:23:21.067Z,98.40
2022-12-27T06:27:40.963Z,98.50
2022-12-27T06:31:58.879Z,98.50
2022-12-27T06:36:19.044Z,98.50
2022-12-27T06:40:39.404Z,98.50
2022-12-27T06:44:59.487Z,98.50
2022-12-27T06:49:17.192Z,98.40
2022-12-27T06:53:36.346Z,98.50
2022-12-27T06:57:54.756Z,98.40
2022-12-27T07:02:14.707Z,98.40
2022-12-27T07:06:33.426Z,98.40
2022-12-27T07:10:50.521Z,98.50
2022-12-27T07:15:10.726Z,98.90
2022-12-27T07:19:29.745Z,98.70
2022-12-27T07:23:48.220Z,98.80
2022-12-27T07:28:06.330Z,98.90
2022-12-27T07:32:25.408Z,99.00
2022-12-27T07:36:45.101Z,99.10
2022-12-27T07:41:03.973Z,99.10
2022-12-27T07:45:21.194Z,99.30
2022-12-27T07:49:40.530Z,99.40
2022-12-27T07:54:00.601Z,99.30
2022-12-27T07:58:18.781Z,98.90
2022-12-27T08:02:36.456Z,98.30
2022-12-27T08:07:01.707Z,97.80
2022-12-27T08:11:18.685Z,97.00
2022-12-27T08:15:38.220Z,96.30
2022-12-27T08:19:57.972Z,95.90
2022-12-27T08:24:17.433Z,95.80
2022-12-27T08:28:37.155Z,95.70
2022-12-27T08:32:55.100Z,95.60
2022-12-27T08:37:13.840Z,95.50
2022-12-27T08:41:32.767Z,95.80
2022-12-27T08:45:52.450Z,95.50
2022-12-27T08:50:11.106Z,95.60
2022-12-27T08:54:28.586Z,96.00
2022-12-27T08:58:49.808Z,96.90
2022-12-27T09:03:07.756Z,97.10
2022-12-27T09:07:25.846Z,96.20
2022-12-27T09:11:43.791Z,94.70
2022-12-27T09:16:06.941Z,92.60
2022-12-27T09:20:26.214Z,91.40
2022-12-27T09:24:44.152Z,90.80
2022-12-27T09:29:02.180Z,90.10
2022-12-27T09:33:21.564Z,88.00
2022-12-27T09:37:41.416Z,86.30
2022-12-27T09:46:50.028Z,84.00
2022-12-27T09:51:15.765Z,83.20
2022-12-27T09:55:41.200Z,83.00
2022-12-27T10:00:05.471Z,82.50
2022-12-27T10:04:34.688Z,81.50
2022-12-27T10:09:22.765Z,81.30
2022-12-27T10:13:50.182Z,81.00
2022-12-27T10:18:21.932Z,80.60
2022-12-27T10:22:47.143Z,80.00
2022-12-27T10:27:14.413Z,79.20
2022-12-27T10:31:33.555Z,79.80
2022-12-27T10:35:51.347Z,78.10
2022-12-27T10:40:13.313Z,77.70
2022-12-27T10:44:35.252Z,78.20
2022-12-27T10:53:55.466Z,78.10
2022-12-27T10:58:39.187Z,78.10
2022-12-27T11:03:00.841Z,77.70
2022-12-27T11:07:23.785Z,77.40
2022-12-27T11:11:41.669Z,77.70
2022-12-27T11:16:03.267Z,78.20
2022-12-27T11:20:34.292Z,79.00
2022-12-27T11:24:53.237Z,79.70
2022-12-27T11:29:19.352Z,80.50
2022-12-27T11:33:40.001Z,81.10
2022-12-27T11:38:02.176Z,82.10
2022-12-27T11:42:30.393Z,83.50
2022-12-27T11:46:58.927Z,84.10
2022-12-27T11:51:45.298Z,84.40
2022-12-27T11:56:20.420Z,84.80
2022-12-27T12:00:48.508Z,84.70
2022-12-27T12:05:43.969Z,83.90
2022-12-27T12:10:17.764Z,83.40
2022-12-27T12:15:21.450Z,83.00
2022-12-27T12:20:08.535Z,82.50
2022-12-27T12:24:55.578Z,82.20
2022-12-27T12:29:35.102Z,81.60
2022-12-27T12:34:07.894Z,81.70
2022-12-27T12:38:37.696Z,81.80
2022-12-27T12:43:13.353Z,81.50
2022-12-27T12:47:54.307Z,81.50
2022-12-27T12:52:41.399Z,81.40
2022-12-27T12:57:32.630Z,81.50
2022-12-27T13:02:13.736Z,82.40
2022-12-27T13:07:08.236Z,83.00
2022-12-27T13:11:48.780Z,83.40
2022-12-27T13:16:23.339Z,82.50
2022-12-27T13:21:05.583Z,82.20
2022-12-27T13:25:39.115Z,82.10
2022-12-27T13:30:16.232Z,81.80
2022-12-27T13:34:51.823Z,80.10
2022-12-27T13:39:39.889Z,78.70
2022-12-27T13:44:43.479Z,77.70
2022-12-27T13:49:36.752Z,77.10
2022-12-27T13:54:35.739Z,76.80
2022-12-27T13:59:22.692Z,77.00
2022-12-27T14:04:07.326Z,77.30
2022-12-27T14:08:52.810Z,77.70
2022-12-27T14:13:37.409Z,77.90
2022-12-27T14:18:27.129Z,78.00
2022-12-27T14:23:33.755Z,78.30
2022-12-27T14:28:17.184Z,78.40
2022-12-27T14:33:13.291Z,78.50
2022-12-27T14:38:20.595Z,78.70
2022-12-27T14:43:17.521Z,79.10
2022-12-27T14:48:01.345Z,79.40
2022-12-27T14:52:54.585Z,79.80
2022-12-27T14:57:27.437Z,80.00
2022-12-27T15:02:01.939Z,80.30
2022-12-27T15:06:41.302Z,80.70
2022-12-27T15:11:16.465Z,81.50
2022-12-27T15:15:47.451Z,81.50
2022-12-27T15:20:22.106Z,81.90
2022-12-27T15:24:51.904Z,82.40
2022-12-27T15:29:31.883Z,83.10
2022-12-27T15:34:02.187Z,83.80
2022-12-27T15:38:41.112Z,84.80
2022-12-27T15:43:09.823Z,85.80
2022-12-27T15:47:55.246Z,86.40
2022-12-27T15:52:20.553Z,86.90
2022-12-27T15:56:47.451Z,87.40
2022-12-27T16:01:29.900Z,87.90
2022-12-27T16:05:52.330Z,88.20
2022-12-27T16:10:51.556Z,88.70
2022-12-27T16:15:37.610Z,89.10
2022-12-27T16:20:17.174Z,89.70
2022-12-27T16:24:36.290Z,90.20
2022-12-27T16:29:00.493Z,90.40
2022-12-27T16:33:33.629Z,90.60
2022-12-27T16:37:55.530Z,90.80
2022-12-27T16:42:15.526Z,91.00
2022-12-27T16:46:59.290Z,91.10
2022-12-27T16:51:29.712Z,91.40
2022-12-27T16:56:16.189Z,91.50
2022-12-27T17:00:42.329Z,91.50
2022-12-27T17:05:02.539Z,91.60
2022-12-27T17:09:45.362Z,91.90
2022-12-27T17:14:10.533Z,91.80
2022-12-27T17:18:33.423Z,91.90
2022-12-27T17:22:55.384Z,92.20
2022-12-27T17:27:21.914Z,92.50
2022-12-27T17:31:49.740Z,92.80
2022-12-27T17:36:31.823Z,92.90
2022-12-27T17:41:02.013Z,93.00
2022-12-27T17:45:31.340Z,93.00
2022-12-27T17:49:52.609Z,93.00
2022-12-27T17:59:07.895Z,92.90
2022-12-27T18:03:31.558Z,92.90
2022-12-27T18:07:53.243Z,92.70
2022-12-27T18:12:18.918Z,92.60
2022-12-27T18:16:41.448Z,92.50
2022-12-27T18:21:04.022Z,92.30
2022-12-27T18:25:27.280Z,92.00
2022-12-27T18:29:47.421Z,91.90
2022-12-27T18:34:07.998Z,91.60
2022-12-27T18:38:29.681Z,91.30
2022-12-27T18:42:51.277Z,91.10
2022-12-27T18:47:19.543Z,91.00
2022-12-27T18:51:40.056Z,90.80
2022-12-27T18:56:02.475Z,90.70
2022-12-27T19:00:25.160Z,90.60
2022-12-27T19:04:44.822Z,90.60
2022-12-27T19:09:02.982Z,90.70
2022-12-27T19:13:24.688Z,90.60
2022-12-27T19:17:46.954Z,90.50
2022-12-27T19:22:31.210Z,90.40
2022-12-27T19:26:49.486Z,90.40
2022-12-27T19:31:16.428Z,90.50
2022-12-27T19:35:36.379Z,90.60
2022-12-27T19:39:55.993Z,90.80
2022-12-27T19:44:13.642Z,91.00
2022-12-27T19:48:31.514Z,91.40
2022-12-27T19:52:50.902Z,91.70
2022-12-27T19:57:12.684Z,92.00
2022-12-27T20:01:32.135Z,92.30
2022-12-27T20:06:12.947Z,92.60
2022-12-27T20:10:31.030Z,92.80
2022-12-27T20:14:50.564Z,92.90
2022-12-27T20:19:08.600Z,93.00
2022-12-27T20:23:26.680Z,93.10
2022-12-27T20:27:46.190Z,93.30
2022-12-27T20:32:06.347Z,93.50
2022-12-27T20:36:24.574Z,93.60
2022-12-27T20:40:42.613Z,93.80
2022-12-27T20:45:01.360Z,94.10
2022-12-27T20:49:21.134Z,94.30
2022-12-27T20:53:39.429Z,94.50
2022-12-27T20:58:01.054Z,94.60
2022-12-27T21:02:20.221Z,94.70
2022-12-27T21:06:39.537Z,94.80
2022-12-27T21:10:57.492Z,94.80
2022-12-27T21:15:15.529Z,94.90
2022-12-27T21:19:34.992Z,95.00
2022-12-27T21:23:54.926Z,95.20
2022-12-27T21:28:12.865Z,95.50
2022-12-27T21:32:30.860Z,95.70
2022-12-27T21:36:51.919Z,96.00
2022-12-27T21:41:12.842Z,96.40
2022-12-27T21:45:32.243Z,96.70
2022-12-27T21:49:52.260Z,96.90
2022-12-27T21:54:13.955Z,97.10
2022-12-27T21:58:31.809Z,97.10
2022-12-27T22:02:50.045Z,97.00
2022-12-27T22:07:07.587Z,96.80
2022-12-27T22:11:28.391Z,96.50
2022-12-27T22:15:55.777Z,96.30
2022-12-27T22:20:14.163Z,96.20
2022-12-27T22:24:32.088Z,96.30
2022-12-27T22:28:51.962Z,95.80
2022-12-27T22:33:11.300Z,95.60
2022-12-27T22:37:29.418Z,95.40
2022-12-27T22:41:47.360Z,95.20
2022-12-27T22:46:08.943Z,95.10
2022-12-27T22:50:26.696Z,95.10
2022-12-27T22:55:05.281Z,95.20
2022-12-27T22:59:24.189Z,95.20
2022-12-27T23:03:44.014Z,95.20
2022-12-27T23:08:07.018Z,95.30
2022-12-27T23:12:24.885Z,95.30
2022-12-27T23:16:44.571Z,95.40
2022-12-27T23:21:21.223Z,95.40
2022-12-27T23:25:43.328Z,95.50
2022-12-27T23:30:01.433Z,95.50
2022-12-27T23:34:25.574Z,95.50
2022-12-27T23:38:48.718Z,95.50
2022-12-27T23:43:42.023Z,95.40
2022-12-27T23:47:47.449Z,95.30
2022-12-27T23:52:05.551Z,95.30
2022-12-27T23:56:27.430Z,95.20
